createdAt,value
2022-09-06T00:01:29.069Z,23.61
2022-09-06T00:03:56.008Z,23.60
2022-09-06T00:06:22.942Z,23.51
2022-09-06T00:08:49.877Z,23.49
2022-09-06T00:11:17.726Z,23.45
2022-09-06T00:13:45.442Z,23.43
2022-09-06T00:16:19.597Z,23.42
2022-09-06T00:18:46.970Z,23.37
2022-09-06T00:21:23.482Z,23.34
2022-09-06T00:23:51.277Z,23.30
2022-09-06T00:26:18.617Z,23.28
2022-09-06T00:28:45.770Z,23.24
2022-09-06T00:31:20.662Z,23.21
2022-09-06T00:33:47.946Z,23.20
2022-09-06T00:36:15.282Z,23.18
2022-09-06T00:38:42.933Z,23.12
2022-09-06T00:41:12.183Z,23.13
2022-09-06T00:43:39.157Z,23.09
2022-09-06T00:46:07.980Z,23.07
2022-09-06T00:48:35.435Z,23.05
2022-09-06T00:51:05.299Z,23.02
2022-09-06T00:53:32.429Z,23.01
2022-09-06T00:55:59.675Z,23.01
2022-09-06T00:58:26.917Z,22.96
2022-09-06T01:00:53.870Z,22.96
2022-09-06T01:03:23.026Z,23.27
2022-09-06T01:06:20.097Z,22.95
2022-09-06T01:09:08.368Z,22.90
2022-09-06T01:12:00.007Z,22.89
2022-09-06T01:14:54.509Z,22.85
2022-09-06T01:17:51.314Z,22.85
2022-09-06T01:20:36.395Z,22.82
2022-09-06T01:23:38.410Z,22.81
2022-09-06T01:26:29.738Z,22.78
2022-09-06T01:28:57.126Z,22.85
2022-09-06T01:31:24.553Z,22.85
2022-09-06T01:34:03.657Z,22.83
2022-09-06T01:37:06.217Z,22.80
2022-09-06T01:39:34.042Z,22.80
2022-09-06T01:42:07.158Z,22.80
2022-09-06T01:44:35.787Z,22.51
2022-09-06T01:47:17.420Z,22.30
2022-09-06T01:50:02.924Z,22.35
2022-09-06T01:52:48.383Z,22.37
2022-09-06T01:55:44.873Z,22.34
2022-09-06T01:58:20.746Z,22.15
2022-09-06T02:01:41.397Z,22.15
2022-09-06T02:04:21.768Z,22.20
2022-09-06T02:06:57.628Z,22.19
2022-09-06T02:09:26.791Z,22.19
2022-09-06T02:11:59.759Z,22.20
2022-09-06T02:14:39.752Z,22.19
2022-09-06T02:17:11.569Z,22.17
2022-09-06T02:19:49.843Z,22.12
2022-09-06T02:22:20.826Z,22.13
2022-09-06T02:24:51.053Z,22.11
2022-09-06T02:27:18.107Z,22.02
2022-09-06T02:29:45.243Z,21.94
2022-09-06T02:32:20.304Z,21.87
2022-09-06T02:34:48.311Z,21.88
2022-09-06T02:37:16.524Z,21.86
2022-09-06T02:39:44.100Z,21.86
2022-09-06T02:42:12.774Z,21.91
2022-09-06T02:44:40.312Z,21.86
2022-09-06T02:47:07.229Z,21.83
2022-09-06T02:49:34.543Z,21.67
2022-09-06T02:52:01.479Z,21.37
2022-09-06T02:54:28.479Z,21.33
2022-09-06T02:56:55.432Z,21.30
2022-09-06T02:59:22.337Z,21.28
2022-09-06T03:01:49.226Z,21.21
2022-09-06T03:04:16.131Z,21.16
2022-09-06T03:06:43.012Z,21.07
2022-09-06T03:09:10.419Z,21.04
2022-09-06T03:11:38.028Z,20.97
2022-09-06T03:14:04.995Z,20.91
2022-09-06T03:16:31.942Z,20.86
2022-09-06T03:18:58.873Z,20.81
2022-09-06T03:21:25.771Z,20.76
2022-09-06T03:23:52.726Z,20.73
2022-09-06T03:26:19.621Z,20.71
2022-09-06T03:28:46.575Z,20.65
2022-09-06T03:31:13.564Z,20.58
2022-09-06T03:33:40.827Z,20.54
2022-09-06T03:36:08.188Z,20.47
2022-09-06T03:38:35.113Z,20.45
2022-09-06T03:41:02.032Z,20.41
2022-09-06T03:43:29.249Z,20.39
2022-09-06T03:45:57.506Z,20.37
2022-09-06T03:48:26.858Z,20.34
2022-09-06T03:50:55.758Z,20.30
2022-09-06T03:53:23.745Z,20.28
2022-09-06T03:55:52.567Z,20.22
2022-09-06T03:58:21.104Z,20.13
2022-09-06T04:00:49.254Z,20.07
2022-09-06T04:03:19.317Z,20.01
2022-09-06T04:05:46.497Z,19.95
2022-09-06T04:08:13.690Z,19.98
2022-09-06T04:10:40.992Z,20.00
2022-09-06T04:13:08.003Z,19.96
2022-09-06T04:15:34.901Z,19.95
2022-09-06T04:18:04.921Z,19.92
2022-09-06T04:20:34.142Z,19.92
2022-09-06T04:23:01.035Z,19.90
2022-09-06T04:25:27.925Z,19.91
2022-09-06T04:27:54.796Z,19.92
2022-09-06T04:30:21.678Z,19.93
2022-09-06T04:32:48.597Z,19.94
2022-09-06T04:35:15.645Z,19.94
2022-09-06T04:37:42.584Z,19.97
2022-09-06T04:40:09.817Z,20.00
2022-09-06T04:42:36.747Z,20.17
2022-09-06T04:45:03.826Z,20.35
2022-09-06T04:47:30.885Z,20.37
2022-09-06T04:49:57.778Z,20.35
2022-09-06T04:52:29.493Z,20.07
2022-09-06T04:54:57.130Z,20.00
2022-09-06T04:57:24.057Z,20.13
2022-09-06T04:59:50.970Z,20.03
2022-09-06T05:02:17.944Z,19.85
2022-09-06T05:04:44.897Z,19.79
2022-09-06T05:07:11.797Z,19.71
2022-09-06T05:09:38.734Z,19.71
2022-09-06T05:12:05.863Z,19.77
2022-09-06T05:14:32.781Z,19.76
2022-09-06T05:16:59.796Z,19.75
2022-09-06T05:19:26.794Z,19.74
2022-09-06T05:21:53.691Z,19.72
2022-09-06T05:24:20.592Z,19.74
2022-09-06T05:26:47.604Z,19.73
2022-09-06T05:29:14.548Z,19.74
2022-09-06T05:31:41.597Z,19.76
2022-09-06T05:34:08.669Z,19.79
2022-09-06T05:36:35.586Z,19.77
2022-09-06T05:39:02.537Z,19.74
2022-09-06T05:41:29.423Z,19.72
2022-09-06T05:43:56.341Z,19.69
2022-09-06T05:46:23.386Z,19.68
2022-09-06T05:49:04.618Z,19.71
2022-09-06T05:51:32.714Z,19.67
2022-09-06T05:53:59.785Z,19.66
2022-09-06T05:56:26.673Z,19.63
2022-09-06T05:58:53.576Z,19.58
2022-09-06T06:01:22.734Z,19.58
2022-09-06T06:03:55.151Z,19.56
2022-09-06T06:06:22.732Z,19.57
2022-09-06T06:08:50.071Z,19.56
2022-09-06T06:11:17.071Z,19.52
2022-09-06T06:13:44.071Z,19.53
2022-09-06T06:16:13.515Z,19.53
2022-09-06T06:18:40.975Z,19.51
2022-09-06T06:21:20.318Z,19.51
2022-09-06T06:23:50.485Z,19.50
2022-09-06T06:26:17.835Z,19.53
2022-09-06T06:28:44.879Z,19.50
2022-09-06T06:31:12.305Z,19.52
2022-09-06T06:33:39.941Z,19.54
2022-09-06T06:36:15.775Z,19.55
2022-09-06T06:38:44.185Z,19.58
2022-09-06T06:41:13.992Z,19.59
2022-09-06T06:43:41.075Z,19.65
2022-09-06T06:46:12.478Z,19.70
2022-09-06T06:48:40.646Z,19.80
2022-09-06T06:51:08.680Z,19.91
2022-09-06T06:53:35.877Z,19.98
2022-09-06T06:56:17.481Z,20.07
2022-09-06T06:58:45.336Z,20.13
2022-09-06T07:01:12.691Z,20.19
2022-09-06T07:03:39.773Z,20.23
2022-09-06T07:06:10.818Z,20.30
2022-09-06T07:08:38.204Z,20.32
2022-09-06T07:11:10.082Z,20.35
2022-09-06T07:13:37.190Z,20.41
2022-09-06T07:16:23.352Z,20.57
2022-09-06T07:18:52.504Z,20.69
2022-09-06T07:21:41.391Z,20.73
2022-09-06T07:24:09.428Z,20.83
2022-09-06T07:26:39.029Z,20.87
2022-09-06T07:29:07.513Z,20.95
2022-09-06T07:34:22.281Z,20.92
2022-09-06T07:36:55.672Z,21.02
2022-09-06T07:39:22.696Z,21.11
2022-09-06T07:41:49.825Z,21.18
2022-09-06T07:44:16.970Z,21.22
2022-09-06T07:46:44.220Z,21.28
2022-09-06T07:49:11.197Z,21.36
2022-09-06T07:51:38.127Z,21.44
2022-09-06T07:54:35.194Z,21.48
2022-09-06T07:56:52.206Z,21.50
2022-09-06T07:59:19.142Z,21.59
2022-09-06T08:01:47.511Z,21.62
2022-09-06T08:04:14.887Z,21.66
2022-09-06T08:09:31.401Z,21.79
2022-09-06T08:11:58.583Z,21.84
2022-09-06T08:14:25.459Z,21.98
2022-09-06T08:16:52.367Z,22.10
2022-09-06T08:19:19.243Z,22.19
2022-09-06T08:21:46.148Z,22.29
2022-09-06T08:24:13.318Z,22.46
2022-09-06T08:26:43.259Z,22.55
2022-09-06T08:29:11.539Z,22.73
2022-09-06T08:31:41.121Z,22.91
2022-09-06T08:34:08.680Z,23.03
2022-09-06T08:36:35.681Z,23.16
2022-09-06T08:39:04.806Z,23.28
2022-09-06T08:41:44.763Z,23.37
2022-09-06T08:47:21.893Z,23.55
2022-09-06T08:50:03.791Z,23.61
2022-09-06T08:53:06.552Z,23.71
2022-09-06T08:55:48.874Z,23.83
2022-09-06T08:58:20.109Z,23.95
2022-09-06T09:00:51.559Z,24.08
2022-09-06T09:03:24.945Z,24.19
2022-09-06T09:05:53.788Z,24.22
2022-09-06T09:08:31.140Z,24.30
2022-09-06T09:11:03.134Z,24.40
2022-09-06T09:13:55.491Z,24.49
2022-09-06T09:16:23.288Z,24.59
2022-09-06T09:19:00.239Z,24.66
2022-09-06T09:21:30.666Z,24.78
2022-09-06T09:24:03.793Z,24.92
2022-09-06T09:26:52.443Z,25.06
2022-09-06T09:29:23.978Z,25.08
2022-09-06T09:31:55.441Z,25.21
2022-09-06T09:34:39.693Z,25.26
2022-09-06T09:40:24.432Z,25.54
2022-09-06T09:42:52.566Z,25.64
2022-09-06T09:45:22.513Z,25.74
2022-09-06T09:47:49.480Z,25.86
2022-09-06T09:50:24.407Z,25.97
2022-09-06T09:52:51.294Z,26.07
2022-09-06T09:55:23.345Z,26.05
2022-09-06T09:57:50.881Z,26.14
2022-09-06T10:00:39.921Z,26.25
2022-09-06T10:03:18.932Z,26.27
2022-09-06T10:06:02.629Z,26.33
2022-09-06T10:08:32.915Z,26.39
2022-09-06T10:11:00.748Z,26.43
2022-09-06T10:13:29.613Z,26.50
2022-09-06T10:15:58.808Z,26.60
2022-09-06T10:18:40.603Z,26.58
2022-09-06T10:21:11.414Z,26.62
2022-09-06T10:26:58.981Z,26.84
2022-09-06T10:29:52.993Z,26.96
2022-09-06T10:32:32.652Z,27.09
2022-09-06T10:35:07.505Z,27.19
2022-09-06T10:37:48.723Z,27.33
2022-09-06T10:40:24.049Z,27.25
2022-09-06T10:42:53.782Z,27.33
2022-09-06T10:45:20.575Z,27.30
2022-09-06T10:47:56.691Z,27.38
2022-09-06T10:50:38.810Z,27.50
2022-09-06T10:53:12.337Z,27.62
2022-09-06T10:55:41.217Z,27.71
2022-09-06T11:00:46.590Z,27.87
2022-09-06T11:06:11.207Z,28.03
2022-09-06T11:09:23.701Z,28.09
2022-09-06T11:12:01.425Z,28.22
2022-09-06T11:14:29.002Z,28.21
2022-09-06T11:17:00.811Z,28.30
2022-09-06T11:19:32.278Z,28.45
2022-09-06T11:22:10.941Z,28.55
2022-09-06T11:25:24.680Z,28.63
2022-09-06T11:27:58.227Z,28.73
2022-09-06T11:30:26.578Z,28.82
2022-09-06T11:33:16.818Z,28.88
2022-09-06T11:35:44.986Z,28.89
2022-09-06T11:38:23.635Z,28.98
2022-09-06T11:41:13.609Z,29.14
2022-09-06T11:43:52.316Z,29.26
2022-09-06T11:46:34.558Z,29.34
2022-09-06T11:49:06.417Z,29.37
2022-09-06T11:51:36.849Z,29.46
2022-09-06T11:54:22.955Z,29.56
2022-09-06T11:56:57.228Z,29.68
2022-09-06T11:59:33.909Z,29.74
2022-09-06T12:02:00.673Z,29.77
2022-09-06T12:05:07.420Z,29.85
2022-09-06T12:07:36.212Z,29.90
2022-09-06T12:10:31.626Z,29.97
2022-09-06T12:12:58.746Z,30.05
2022-09-06T12:15:26.455Z,30.09
2022-09-06T12:17:53.481Z,30.22
2022-09-06T12:21:01.018Z,30.32
2022-09-06T12:23:37.043Z,30.36
2022-09-06T12:26:08.350Z,30.38
2022-09-06T12:28:51.996Z,30.40
2022-09-06T12:31:24.790Z,30.37
2022-09-06T12:33:52.405Z,30.34
2022-09-06T12:36:29.680Z,30.34
2022-09-06T12:39:21.231Z,30.38
2022-09-06T12:41:51.795Z,30.51
2022-09-06T12:44:22.122Z,30.55
2022-09-06T12:46:51.382Z,30.62
2022-09-06T12:49:21.678Z,30.65
2022-09-06T12:51:49.727Z,30.74
2022-09-06T12:54:22.793Z,30.77
2022-09-06T12:56:50.625Z,30.82
2022-09-06T12:59:20.162Z,30.90
2022-09-06T13:01:56.781Z,30.98
2022-09-06T13:04:41.729Z,31.11
2022-09-06T13:07:15.548Z,31.08
2022-09-06T13:09:44.732Z,31.18
2022-09-06T13:12:26.264Z,31.28
2022-09-06T13:14:55.400Z,31.38
2022-09-06T13:17:24.204Z,31.50
2022-09-06T13:19:53.338Z,31.55
2022-09-06T13:23:01.719Z,31.58
2022-09-06T13:25:28.613Z,31.63
2022-09-06T13:27:58.860Z,31.71
2022-09-06T13:30:49.063Z,31.77
2022-09-06T13:33:25.505Z,31.84
2022-09-06T13:36:10.568Z,31.89
2022-09-06T13:38:37.349Z,31.85
2022-09-06T13:41:12.616Z,31.88
2022-09-06T13:43:47.552Z,31.88
2022-09-06T13:46:14.532Z,31.91
2022-09-06T13:48:44.208Z,31.94
2022-09-06T13:51:11.724Z,31.96
2022-09-06T13:53:38.620Z,31.99
2022-09-06T13:56:10.877Z,32.11
2022-09-06T13:58:37.790Z,32.18
2022-09-06T14:01:08.722Z,32.21
2022-09-06T14:03:37.416Z,32.31
2022-09-06T14:06:04.536Z,32.38
2022-09-06T14:08:55.801Z,32.39
2022-09-06T14:11:19.413Z,32.43
2022-09-06T14:13:46.347Z,32.48
2022-09-06T14:16:13.456Z,32.54
2022-09-06T14:18:40.390Z,32.55
2022-09-06T14:21:07.704Z,32.59
2022-09-06T14:23:34.607Z,32.59
2022-09-06T14:26:03.563Z,32.53
2022-09-06T14:28:34.071Z,32.34
2022-09-06T14:31:12.500Z,32.44
2022-09-06T14:33:39.588Z,32.48
2022-09-06T14:36:12.285Z,32.50
2022-09-06T14:38:40.476Z,32.39
2022-09-06T14:41:08.546Z,32.43
2022-09-06T14:43:36.274Z,32.47
2022-09-06T14:46:05.393Z,32.48
2022-09-06T14:48:32.534Z,32.46
2022-09-06T14:51:06.347Z,32.43
2022-09-06T14:53:40.389Z,32.22
2022-09-06T14:56:09.048Z,32.21
2022-09-06T14:58:37.925Z,32.27
2022-09-06T15:01:14.866Z,32.28
2022-09-06T15:03:44.086Z,32.28
2022-09-06T15:06:10.987Z,32.27
2022-09-06T15:08:38.326Z,32.17
2022-09-06T15:11:07.885Z,32.04
2022-09-06T15:13:40.326Z,31.90
2022-09-06T15:16:09.325Z,31.78
2022-09-06T15:18:36.494Z,31.67
2022-09-06T15:21:14.380Z,31.57
2022-09-06T15:23:42.935Z,31.40
2022-09-06T15:26:11.978Z,31.30
2022-09-06T15:28:40.228Z,31.24
2022-09-06T15:31:08.302Z,31.16
2022-09-06T15:33:37.110Z,31.13
2022-09-06T15:36:07.847Z,31.11
2022-09-06T15:38:48.076Z,31.10
2022-09-06T15:41:20.841Z,31.14
2022-09-06T15:43:50.562Z,31.19
2022-09-06T15:46:22.565Z,31.20
2022-09-06T15:48:53.453Z,31.24
2022-09-06T15:51:21.269Z,31.27
2022-09-06T15:53:48.246Z,31.27
2022-09-06T15:56:16.937Z,31.25
2022-09-06T15:58:47.662Z,31.25
2022-09-06T16:01:22.769Z,31.19
2022-09-06T16:03:54.448Z,31.17
2022-09-06T16:06:27.417Z,31.13
2022-09-06T16:09:00.356Z,31.12
2022-09-06T16:11:28.845Z,31.05
2022-09-06T16:13:56.432Z,30.94
2022-09-06T16:16:23.754Z,30.87
2022-09-06T16:18:52.184Z,30.79
2022-09-06T16:21:24.522Z,30.65
2022-09-06T16:23:53.984Z,30.55
2022-09-06T16:26:22.737Z,30.44
2022-09-06T16:28:51.247Z,30.32
2022-09-06T16:31:19.065Z,30.23
2022-09-06T16:33:47.425Z,30.13
2022-09-06T16:36:14.955Z,30.07
2022-09-06T16:38:41.897Z,30.00
2022-09-06T16:41:26.430Z,29.95
2022-09-06T16:43:53.644Z,29.94
2022-09-06T16:46:22.450Z,29.92
2022-09-06T16:48:53.780Z,29.87
2022-09-06T16:51:22.222Z,29.87
2022-09-06T16:53:49.627Z,29.87
2022-09-06T16:56:19.061Z,29.88
2022-09-06T16:58:58.556Z,29.87
2022-09-06T17:01:27.021Z,29.88
2022-09-06T17:03:54.059Z,29.85
2022-09-06T17:06:21.851Z,29.80
2022-09-06T17:08:48.922Z,29.77
2022-09-06T17:11:18.364Z,29.71
2022-09-06T17:13:47.214Z,29.68
2022-09-06T17:16:33.583Z,29.66
2022-09-06T17:19:03.318Z,29.62
2022-09-06T17:21:30.982Z,29.60
2022-09-06T17:24:02.961Z,29.56
2022-09-06T17:26:30.796Z,29.51
2022-09-06T17:28:58.098Z,29.47
2022-09-06T17:31:26.072Z,29.44
2022-09-06T17:33:53.382Z,29.39
2022-09-06T17:36:28.923Z,29.34
2022-09-06T17:39:07.568Z,29.29
2022-09-06T17:41:46.143Z,29.22
2022-09-06T17:44:15.588Z,29.13
2022-09-06T17:46:57.113Z,29.01
2022-09-06T17:49:30.601Z,28.93
2022-09-06T17:51:58.364Z,28.83
2022-09-06T17:54:25.493Z,28.70
2022-09-06T17:56:52.458Z,28.60
2022-09-06T17:59:19.755Z,28.49
2022-09-06T18:01:46.779Z,28.38
2022-09-06T18:04:14.451Z,28.28
2022-09-06T18:06:43.073Z,28.17
2022-09-06T18:09:15.780Z,28.08
2022-09-06T18:11:45.862Z,27.97
2022-09-06T18:14:18.131Z,27.87
2022-09-06T18:16:47.061Z,27.75
2022-09-06T18:19:15.259Z,27.65
2022-09-06T18:21:42.454Z,27.56
2022-09-06T18:24:10.222Z,27.47
2022-09-06T18:26:37.409Z,27.38
2022-09-06T18:29:08.311Z,27.31
2022-09-06T18:31:35.531Z,27.24
2022-09-06T18:34:02.620Z,27.19
2022-09-06T18:36:32.437Z,27.16
2022-09-06T18:39:04.721Z,27.07
2022-09-06T18:41:51.710Z,27.02
2022-09-06T18:44:19.035Z,26.96
2022-09-06T18:46:46.180Z,26.92
2022-09-06T18:49:14.993Z,26.82
2022-09-06T18:51:42.295Z,26.70
2022-09-06T18:54:10.791Z,26.62
2022-09-06T18:56:38.011Z,26.54
2022-09-06T18:59:05.674Z,26.49
2022-09-06T19:01:34.750Z,26.43
2022-09-06T19:04:02.736Z,26.39
2022-09-06T19:06:30.872Z,26.34
2022-09-06T19:08:59.291Z,26.30
2022-09-06T19:11:26.189Z,26.26
2022-09-06T19:13:54.486Z,26.21
2022-09-06T19:16:23.308Z,26.17
2022-09-06T19:18:55.943Z,26.11
2022-09-06T19:21:25.285Z,26.07
2022-09-06T19:24:03.689Z,26.03
2022-09-06T19:26:33.721Z,26.01
2022-09-06T19:29:03.276Z,25.96
2022-09-06T19:31:33.362Z,25.95
2022-09-06T19:34:00.459Z,25.91
2022-09-06T19:36:28.884Z,25.83
2022-09-06T19:39:05.753Z,25.74
2022-09-06T19:41:38.241Z,25.68
2022-09-06T19:44:08.330Z,25.64
2022-09-06T19:46:35.551Z,25.59
2022-09-06T19:49:04.867Z,25.51
2022-09-06T19:51:33.002Z,25.50
2022-09-06T19:54:00.398Z,25.46
2022-09-06T19:56:32.577Z,25.45
2022-09-06T19:59:01.433Z,25.40
2022-09-06T20:01:32.334Z,25.39
2022-09-06T20:04:00.571Z,25.33
2022-09-06T20:06:27.507Z,25.28
2022-09-06T20:08:57.254Z,25.23
2022-09-06T20:11:29.170Z,25.17
2022-09-06T20:13:56.659Z,25.13
2022-09-06T20:16:27.698Z,25.10
2022-09-06T20:18:55.226Z,25.07
2022-09-06T20:21:22.505Z,25.06
2022-09-06T20:23:57.513Z,25.04
2022-09-06T20:26:27.283Z,25.03
2022-09-06T20:28:58.848Z,25.00
2022-09-06T20:31:29.565Z,24.97
2022-09-06T20:33:59.032Z,24.95
2022-09-06T20:36:26.039Z,24.94
2022-09-06T20:38:53.248Z,24.92
2022-09-06T20:41:22.707Z,24.91
2022-09-06T20:43:57.058Z,24.87
2022-09-06T20:46:28.966Z,24.85
2022-09-06T20:48:57.982Z,24.82
2022-09-06T20:51:25.370Z,24.80
2022-09-06T20:53:54.207Z,24.78
2022-09-06T20:56:26.191Z,24.75
2022-09-06T20:58:55.352Z,24.75
2022-09-06T21:01:26.595Z,24.71
2022-09-06T21:03:56.459Z,24.70
2022-09-06T21:06:24.825Z,24.66
2022-09-06T21:08:53.300Z,24.61
2022-09-06T21:11:20.419Z,24.54
2022-09-06T21:13:52.233Z,24.48
2022-09-06T21:16:24.299Z,24.42
2022-09-06T21:18:53.178Z,24.33
2022-09-06T21:21:20.441Z,24.29
2022-09-06T21:23:47.369Z,24.24
2022-09-06T21:26:17.547Z,24.18
2022-09-06T21:28:47.879Z,24.12
2022-09-06T21:31:22.827Z,24.05
2022-09-06T21:33:55.199Z,24.04
2022-09-06T21:36:23.768Z,24.05
2022-09-06T21:38:53.592Z,24.06
2022-09-06T21:41:20.770Z,24.03
2022-09-06T21:43:56.894Z,24.04
2022-09-06T21:46:30.321Z,24.03
2022-09-06T21:49:01.560Z,24.02
2022-09-06T21:51:28.430Z,24.03
2022-09-06T21:53:56.946Z,24.01
2022-09-06T21:56:24.499Z,24.01
2022-09-06T21:58:56.152Z,23.99
2022-09-06T22:01:29.090Z,23.96
2022-09-06T22:04:02.983Z,23.94
2022-09-06T22:06:34.179Z,23.92
2022-09-06T22:09:13.648Z,23.90
2022-09-06T22:11:42.997Z,23.87
2022-09-06T22:14:12.071Z,23.85
2022-09-06T22:16:40.006Z,23.83
2022-09-06T22:19:12.886Z,23.81
2022-09-06T22:21:40.189Z,23.80
2022-09-06T22:24:09.898Z,23.77
2022-09-06T22:26:38.250Z,23.75
2022-09-06T22:29:07.600Z,23.70
2022-09-06T22:31:35.086Z,23.61
2022-09-06T22:34:02.611Z,23.56
2022-09-06T22:36:29.527Z,23.50
2022-09-06T22:38:57.469Z,23.43
2022-09-06T22:41:26.973Z,23.41
2022-09-06T22:43:53.910Z,23.34
2022-09-06T22:46:20.964Z,23.28
2022-09-06T22:48:47.984Z,23.22
2022-09-06T22:51:15.025Z,23.19
2022-09-06T22:53:41.903Z,23.14
2022-09-06T22:56:08.985Z,23.11
2022-09-06T22:58:35.924Z,23.08
2022-09-06T23:01:13.602Z,23.04
2022-09-06T23:03:41.628Z,23.02
2022-09-06T23:06:08.948Z,22.99
2022-09-06T23:08:37.374Z,22.98
2022-09-06T23:11:16.318Z,22.97
2022-09-06T23:13:43.764Z,22.96
2022-09-06T23:16:19.059Z,22.94
2022-09-06T23:18:46.760Z,22.92
2022-09-06T23:21:19.563Z,22.93
2022-09-06T23:23:47.607Z,22.92
2022-09-06T23:26:17.411Z,22.89
2022-09-06T23:28:44.798Z,22.87
2022-09-06T23:31:13.920Z,22.86
2022-09-06T23:33:41.715Z,22.84
2022-09-06T23:36:11.186Z,22.82
2022-09-06T23:38:40.146Z,22.79
2022-09-06T23:41:08.619Z,22.77
2022-09-06T23:43:35.530Z,22.76
2022-09-06T23:46:02.683Z,22.74
2022-09-06T23:48:29.820Z,22.71
2022-09-06T23:50:56.944Z,22.68
2022-09-06T23:53:23.959Z,22.64
2022-09-06T23:55:50.841Z,22.62
2022-09-06T23:58:17.728Z,22.61
